Notice: Undefined index: station in /home3/dimtiris/public_html/webApp/metar/index.php on line 4

Metar

Weather conditions for all airports of the world. Just type the ICAO code of an airport.

LGAV 291620Z 05005KT CAVOK 29/19 Q1009 NOSIG

STATION LGAV
OBSERVED Tue Jul 29, 10:20 MDT
NOW Tue Jul 29, 10:46 MDT
AGE 26 min ago
WIND NE at 6 mph
VISIBILITY greater than 7 miles
CONDITIONS
CLOUDS clear skies
TEMP 84°F (29°C)
DEWPT 66°F (19°C)
HUMIDITY 55%
HEAT INDEX 86°F (30°C)
BAROMETER 1009 hPa (29.8 in Hg)

Get weather info from other station:

Some ICAO codes to try: